Terminal Aerodrome Forecast
Issued by NWS Tuscon, AZ

Home | Current Version | Previous Version | Text Only | Print | Product List | Glossary On
Versions: 1 2 3 4 5 6 7 8 9 10 11 12 13 14 15 16 17
000
FTUS45 KTWC 301100
TAFTUS
TAF
KTUS 301128Z 3012/0112 14007KT P6SM SKC
     FM302000 32008KT P6SM SKC
     FM010400 20005KT P6SM SKC
     FM010700 15005KT P6SM SKC=

USA.gov is the U.S. government's official web portal to all federal, state and local government web resources and services.